MV Moseldijk — PBWK — position and weather

sailwx.info

Track history (hours):
 
Tides and Currents Weather Stations Pressure Air Temp Water Temp Dewpoint Dewpoint Depression Visibility Wind Speed Wind Dir Waves Ship Positions

MV Moseldijk

Last reported at 2017-May-25 09:31 UTC. Time now 2017-May-27 21:11 UTC.
Position N 36°26' E 015°08'.

Length 90 m; draft 5.4 m.

Type: Cargo ship. MMSI: 246644000.

Date/timePositionNaut miles runAvg speedWind from/ knotsBaromVisibWave heightAir tempDewpointWater temp
2017-May-25 09:31N 36°26' E 015°08'411.1
2017-May-25 09:10N 36°27' E 015°03'210.9
2017-May-25 09:00N 36°28' E 015°01'511.0
2017-May-25 08:30N 36°30' E 014°55'611.0
2017-May-25 08:00N 36°32' E 014°49'510.9
2017-May-25 07:30N 36°34' E 014°43'510.6
2017-May-25 07:00N 36°36' E 014°36'611.1
2017-May-25 06:30N 36°38' E 014°30'611.5
2017-May-25 06:00N 36°41' E 014°23'611.3
2017-May-25 05:30N 36°43' E 014°17'611.2
2017-May-25 05:00N 36°45' E 014°11'611.2
2017-May-25 04:30N 36°48' E 014°04'511.1
2017-May-25 04:00N 36°50' E 013°58'611.1
2017-May-25 03:30N 36°53' E 013°52'511.2
2017-May-25 03:00N 36°55' E 013°45'611.0
2017-May-25 02:30N 36°57' E 013°39'510.8
2017-May-25 02:00N 36°59' E 013°33'510.7
2017-May-25 01:30N 37°01' E 013°27'1110.4
2017-May-25 00:26N 37°06' E 013°14'410.5
2017-May-25 00:00N 37°07' E 013°08'511.0
2017-May-24 23:30N 37°09' E 013°02'610.8
2017-May-24 23:00N 37°12' E 012°56'510.5
2017-May-24 22:30N 37°14' E 012°50'1610.6
2017-May-24 21:01N 37°20' E 012°32'011.0
2017-May-24 20:59N 37°20' E 012°31'611.4
2017-May-24 20:30N 37°22' E 012°25'1011.1
2017-May-24 19:37N 37°27' E 012°14'110.7
2017-May-24 19:29N 37°27' E 012°12'84 9.6
2017-May-24 10:45N 38°01' E 010°35'37310.7
2017-May-22 23:50N 40°48' E 003°24'410.9
2017-May-22 23:30N 40°50' E 003°20'511.0
2017-May-22 23:00N 40°52' E 003°14'610.9
2017-May-22 22:29N 40°55' E 003°07'610.8
2017-May-22 21:58N 40°57' E 003°00'510.9
2017-May-22 21:30N 40°59' E 002°54'610.7
2017-May-22 20:59N 41°02' E 002°48'510.7
2017-May-22 20:30N 41°04' E 002°42'510.6
2017-May-22 20:00N 41°06' E 002°35'610.4
2017-May-22 19:28N 41°09' E 002°28'510.2
2017-May-22 19:00N 41°11' E 002°23'510.6
2017-May-22 18:30N 41°13' E 002°16'510.1
2017-May-22 18:00N 41°16' E 002°11'5 9.6
2017-May-22 17:30N 41°21' E 002°10'0 0.1
2017-May-22 11:30N 41°21' E 002°10'0 0.0
2017-May-21 23:48N 41°21' E 002°10'0 0.0
2017-May-21 23:18N 41°21' E 002°09'0 0.1
2017-May-21 23:00N 41°21' E 002°10'0 0.0
2017-May-21 22:24N 41°21' E 002°10'0 0.0
2017-May-21 21:48N 41°21' E 002°10'0 0.0
2017-May-21 21:30N 41°21' E 002°10'0 0.0
2017-May-21 20:54N 41°21' E 002°10'0 0.0
2017-May-21 19:48N 41°21' E 002°10'0 0.0
2017-May-21 19:18N 41°21' E 002°09'0 0.0
2017-May-21 19:00N 41°21' E 002°10'0 0.0
2017-May-21 02:18N 41°21' E 002°10'  
2017-May-18 06:17N 41°21' E 002°10'0 0.0
2017-May-17 17:10N 41°21' E 002°10'0 1.5
2017-May-17 17:00N 41°21' E 002°10'2 3.8
2017-May-17 16:30N 41°19' E 002°12'0 0.6
2017-May-17 15:57N 41°20' E 002°12'0 0.1
2017-May-17 15:09N 41°20' E 002°11'0 0.1
2017-May-17 14:55N 41°20' E 002°11'0 0.0
2017-May-17 14:25N 41°20' E 002°11'0 0.0
2017-May-17 10:07N 41°20' E 002°11'0 0.0
2017-May-17 09:49N 41°20' E 002°11'0 0.1
2017-May-17 09:31N 41°20' E 002°11'0 0.1
2017-May-17 08:43N 41°20' E 002°11'0 0.0
2017-May-17 08:13N 41°20' E 002°11'0 0.0
2017-May-17 08:01N 41°20' E 002°11'0 0.0
2017-May-17 05:31N 41°20' E 002°11'0 0.0
2017-May-17 02:13N 41°20' E 002°11'0 0.0
2017-May-17 01:49N 41°20' E 002°11'0 0.0
2017-May-16 23:13N 41°20' E 002°11'0 0.0
2017-May-16 22:49N 41°20' E 002°11'0 0.0
2017-May-16 22:24N 41°20' E 002°11'0 0.0
2017-May-16 22:01N 41°20' E 002°11'0 0.0
2017-May-16 20:12N 41°20' E 002°11'0 0.0
2017-May-16 19:36N 41°20' E 002°11'0 0.0
2017-May-16 19:19N 41°20' E 002°11'0 0.0
2017-May-16 19:00N 41°20' E 002°11'21 1.7
2017-May-16 06:43N 41°27' E 002°37'1710.1
2017-May-16 05:05N 41°36' E 002°56'1 9.9
2017-May-16 05:00N 41°36' E 002°57'510.0
2017-May-16 04:30N 41°39' E 003°03'710.6
2017-May-16 03:51N 41°42' E 003°10'7410.3
2017-May-15 20:38N 42°51' E 003°49'1310.4
2017-May-15 19:21N 43°04' E 003°53'810.3
2017-May-15 18:35N 43°11' E 003°49'110.3
2017-May-15 18:30N 43°12' E 003°49'  
Track history (hours):
 
Tides and Currents Weather Stations Pressure Air Temp Water Temp Dewpoint Dewpoint Depression Visibility Wind Speed Wind Dir Waves Ship Positions

MV Moseldijk

Last reported at 2017-May-25 09:31 UTC. Time now 2017-May-27 21:11 UTC.
Position N 36°26' E 015°08'.

Length 90 m; draft 5.4 m.

Type: Cargo ship. MMSI: 246644000.

Date/timePositionNaut miles runAvg speedWind from/ knotsBaromVisibWave heightAir tempDewpointWater temp
2017-May-25 09:31N 36°26' E 015°08'411.1
2017-May-25 09:10N 36°27' E 015°03'210.9
2017-May-25 09:00N 36°28' E 015°01'511.0
2017-May-25 08:30N 36°30' E 014°55'611.0
2017-May-25 08:00N 36°32' E 014°49'510.9
2017-May-25 07:30N 36°34' E 014°43'510.6
2017-May-25 07:00N 36°36' E 014°36'611.1
2017-May-25 06:30N 36°38' E 014°30'611.5
2017-May-25 06:00N 36°41' E 014°23'611.3
2017-May-25 05:30N 36°43' E 014°17'611.2
2017-May-25 05:00N 36°45' E 014°11'611.2
2017-May-25 04:30N 36°48' E 014°04'511.1
2017-May-25 04:00N 36°50' E 013°58'611.1
2017-May-25 03:30N 36°53' E 013°52'511.2
2017-May-25 03:00N 36°55' E 013°45'611.0
2017-May-25 02:30N 36°57' E 013°39'510.8
2017-May-25 02:00N 36°59' E 013°33'510.7
2017-May-25 01:30N 37°01' E 013°27'1110.4
2017-May-25 00:26N 37°06' E 013°14'410.5
2017-May-25 00:00N 37°07' E 013°08'511.0
2017-May-24 23:30N 37°09' E 013°02'610.8
2017-May-24 23:00N 37°12' E 012°56'510.5
2017-May-24 22:30N 37°14' E 012°50'1610.6
2017-May-24 21:01N 37°20' E 012°32'011.0
2017-May-24 20:59N 37°20' E 012°31'611.4
2017-May-24 20:30N 37°22' E 012°25'1011.1
2017-May-24 19:37N 37°27' E 012°14'110.7
2017-May-24 19:29N 37°27' E 012°12'84 9.6
2017-May-24 10:45N 38°01' E 010°35'37310.7
2017-May-22 23:50N 40°48' E 003°24'410.9
2017-May-22 23:30N 40°50' E 003°20'511.0
2017-May-22 23:00N 40°52' E 003°14'610.9
2017-May-22 22:29N 40°55' E 003°07'610.8
2017-May-22 21:58N 40°57' E 003°00'510.9
2017-May-22 21:30N 40°59' E 002°54'610.7
2017-May-22 20:59N 41°02' E 002°48'510.7
2017-May-22 20:30N 41°04' E 002°42'510.6
2017-May-22 20:00N 41°06' E 002°35'610.4
2017-May-22 19:28N 41°09' E 002°28'510.2
2017-May-22 19:00N 41°11' E 002°23'510.6
2017-May-22 18:30N 41°13' E 002°16'510.1
2017-May-22 18:00N 41°16' E 002°11'5 9.6
2017-May-22 17:30N 41°21' E 002°10'0 0.1
2017-May-22 11:30N 41°21' E 002°10'0 0.0
2017-May-21 23:48N 41°21' E 002°10'0 0.0
2017-May-21 23:18N 41°21' E 002°09'0 0.1
2017-May-21 23:00N 41°21' E 002°10'0 0.0
2017-May-21 22:24N 41°21' E 002°10'0 0.0
2017-May-21 21:48N 41°21' E 002°10'0 0.0
2017-May-21 21:30N 41°21' E 002°10'0 0.0
2017-May-21 20:54N 41°21' E 002°10'0 0.0
2017-May-21 19:48N 41°21' E 002°10'0 0.0
2017-May-21 19:18N 41°21' E 002°09'0 0.0
2017-May-21 19:00N 41°21' E 002°10'0 0.0
2017-May-21 02:18N 41°21' E 002°10'  
2017-May-18 06:17N 41°21' E 002°10'0 0.0
2017-May-17 17:10N 41°21' E 002°10'0 1.5
2017-May-17 17:00N 41°21' E 002°10'2 3.8
2017-May-17 16:30N 41°19' E 002°12'0 0.6
2017-May-17 15:57N 41°20' E 002°12'0 0.1
2017-May-17 15:09N 41°20' E 002°11'0 0.1
2017-May-17 14:55N 41°20' E 002°11'0 0.0
2017-May-17 14:25N 41°20' E 002°11'0 0.0
2017-May-17 10:07N 41°20' E 002°11'0 0.0
2017-May-17 09:49N 41°20' E 002°11'0 0.1
2017-May-17 09:31N 41°20' E 002°11'0 0.1
2017-May-17 08:43N 41°20' E 002°11'0 0.0
2017-May-17 08:13N 41°20' E 002°11'0 0.0
2017-May-17 08:01N 41°20' E 002°11'0 0.0
2017-May-17 05:31N 41°20' E 002°11'0 0.0
2017-May-17 02:13N 41°20' E 002°11'0 0.0
2017-May-17 01:49N 41°20' E 002°11'0 0.0
2017-May-16 23:13N 41°20' E 002°11'0 0.0
2017-May-16 22:49N 41°20' E 002°11'0 0.0
2017-May-16 22:24N 41°20' E 002°11'0 0.0
2017-May-16 22:01N 41°20' E 002°11'0 0.0
2017-May-16 20:12N 41°20' E 002°11'0 0.0
2017-May-16 19:36N 41°20' E 002°11'0 0.0
2017-May-16 19:19N 41°20' E 002°11'0 0.0
2017-May-16 19:00N 41°20' E 002°11'21 1.7
2017-May-16 06:43N 41°27' E 002°37'1710.1
2017-May-16 05:05N 41°36' E 002°56'1 9.9
2017-May-16 05:00N 41°36' E 002°57'510.0
2017-May-16 04:30N 41°39' E 003°03'710.6
2017-May-16 03:51N 41°42' E 003°10'7410.3
2017-May-15 20:38N 42°51' E 003°49'1310.4
2017-May-15 19:21N 43°04' E 003°53'810.3
2017-May-15 18:35N 43°11' E 003°49'110.3
2017-May-15 18:30N 43°12' E 003°49'  

Dump ship's entire track history